createdAt,value
2018-01-16T00:01:35.834Z,95.98
2018-01-16T00:04:10.753Z,96.12
2018-01-16T00:06:45.794Z,96.13
2018-01-16T00:09:20.754Z,96.20
2018-01-16T00:11:55.878Z,96.30
2018-01-16T00:14:31.581Z,96.25
2018-01-16T00:17:06.491Z,96.14
2018-01-16T00:19:41.804Z,96.08
2018-01-16T00:22:27.881Z,96.20
2018-01-16T00:25:02.589Z,96.53
2018-01-16T00:27:37.842Z,97.06
2018-01-16T00:30:12.730Z,97.43
2018-01-16T00:32:47.907Z,97.64
2018-01-16T00:35:23.541Z,97.98
2018-01-16T00:37:58.637Z,97.96
2018-01-16T00:40:33.686Z,98.15
2018-01-16T00:43:08.979Z,98.50
2018-01-16T00:45:43.923Z,98.86
2018-01-16T00:48:18.964Z,99.01
2018-01-16T00:50:53.934Z,99.16
2018-01-16T00:53:28.825Z,99.44
2018-01-16T00:56:03.694Z,99.66
2018-01-16T00:58:38.827Z,99.95
2018-01-16T01:01:13.847Z,100.00
2018-01-16T01:03:49.279Z,100.00
2018-01-16T01:06:23.968Z,99.87
2018-01-16T01:08:58.857Z,99.81
2018-01-16T01:11:33.990Z,99.68
2018-01-16T01:14:09.105Z,99.47
2018-01-16T01:16:44.061Z,99.31
2018-01-16T01:19:19.685Z,99.21
2018-01-16T01:21:54.761Z,99.15
2018-01-16T01:24:29.838Z,99.11
2018-01-16T01:27:04.715Z,98.90
2018-01-16T01:29:40.102Z,98.84
2018-01-16T01:32:14.859Z,98.62
2018-01-16T01:34:50.079Z,98.49
2018-01-16T01:37:24.962Z,98.27
2018-01-16T01:40:00.139Z,98.02
2018-01-16T01:42:36.110Z,97.50
2018-01-16T01:45:11.071Z,97.01
2018-01-16T01:47:46.295Z,96.78
2018-01-16T01:50:21.367Z,96.16
2018-01-16T01:52:55.955Z,95.12
2018-01-16T01:55:30.298Z,94.59
2018-01-16T01:58:05.356Z,93.90
2018-01-16T02:00:39.919Z,92.93
2018-01-16T02:03:14.829Z,92.78
2018-01-16T02:05:49.395Z,92.61
2018-01-16T02:08:24.468Z,92.63
2018-01-16T02:10:59.456Z,92.72
2018-01-16T02:13:35.926Z,92.81
2018-01-16T02:16:10.871Z,93.26
2018-01-16T02:18:45.898Z,93.20
2018-01-16T02:21:20.893Z,93.03
2018-01-16T02:23:55.907Z,92.65
2018-01-16T02:26:30.438Z,92.66
2018-01-16T02:29:05.471Z,92.79
2018-01-16T02:31:40.399Z,92.06
2018-01-16T02:34:15.931Z,90.80
2018-01-16T02:36:51.008Z,90.98
2018-01-16T02:39:25.656Z,90.48
2018-01-16T02:42:00.333Z,90.07
2018-01-16T02:44:36.144Z,90.25
2018-01-16T02:47:11.253Z,90.19
2018-01-16T02:49:46.266Z,90.33
2018-01-16T02:52:21.803Z,90.50
2018-01-16T02:54:56.765Z,90.65
2018-01-16T02:57:31.982Z,90.96
2018-01-16T03:00:06.891Z,91.29
2018-01-16T03:02:41.881Z,91.48
2018-01-16T03:05:17.022Z,91.42
2018-01-16T03:07:52.173Z,91.63
2018-01-16T03:10:27.463Z,91.64
2018-01-16T03:13:02.433Z,91.83
2018-01-16T03:15:37.438Z,92.14
2018-01-16T03:18:12.026Z,92.44
2018-01-16T03:20:47.492Z,92.41
2018-01-16T03:23:22.037Z,92.38
2018-01-16T03:25:57.097Z,92.51
2018-01-16T03:28:32.210Z,92.83
2018-01-16T03:31:07.138Z,93.26
2018-01-16T03:33:42.160Z,94.03
2018-01-16T03:36:17.461Z,94.33
2018-01-16T03:38:52.442Z,94.50
2018-01-16T03:41:27.427Z,94.57
2018-01-16T03:44:02.341Z,94.22
2018-01-16T03:46:37.386Z,94.06
2018-01-16T03:49:12.212Z,93.95
2018-01-16T03:51:47.275Z,92.99
2018-01-16T03:54:22.172Z,93.00
2018-01-16T03:56:57.398Z,93.13
2018-01-16T03:59:32.122Z,93.19
2018-01-16T04:02:06.730Z,93.40
2018-01-16T04:04:41.699Z,93.41
2018-01-16T04:07:17.160Z,93.42
2018-01-16T04:09:52.452Z,93.47
2018-01-16T04:12:27.262Z,93.62
2018-01-16T04:15:01.723Z,93.54
2018-01-16T04:17:37.153Z,93.84
2018-01-16T04:20:12.047Z,94.18
2018-01-16T04:22:47.161Z,94.56
2018-01-16T04:25:22.027Z,94.67
2018-01-16T04:27:57.074Z,94.83
2018-01-16T04:30:31.647Z,94.62
2018-01-16T04:33:06.466Z,95.03
2018-01-16T04:35:41.715Z,95.12
2018-01-16T04:38:16.593Z,95.44
2018-01-16T04:40:51.491Z,95.07
2018-01-16T04:43:26.627Z,95.06
2018-01-16T04:46:01.738Z,95.28
2018-01-16T04:48:36.639Z,95.42
2018-01-16T04:51:11.706Z,95.65
2018-01-16T04:53:46.604Z,95.58
2018-01-16T04:56:21.550Z,95.55
2018-01-16T04:58:56.518Z,95.47
2018-01-16T05:01:31.331Z,95.22
2018-01-16T05:04:06.104Z,95.16
2018-01-16T05:06:41.253Z,95.10
2018-01-16T05:09:16.419Z,94.97
2018-01-16T05:11:51.696Z,94.91
2018-01-16T05:14:26.560Z,94.80
2018-01-16T05:17:01.446Z,94.67
2018-01-16T05:19:36.908Z,94.71
2018-01-16T05:22:11.730Z,94.77
2018-01-16T05:24:47.274Z,94.19
2018-01-16T05:27:21.870Z,94.41
2018-01-16T05:29:57.234Z,94.14
2018-01-16T05:32:32.539Z,94.08
2018-01-16T05:35:07.540Z,93.69
2018-01-16T05:37:42.079Z,93.37
2018-01-16T05:40:17.254Z,93.15
2018-01-16T05:42:52.599Z,92.80
2018-01-16T05:45:27.582Z,92.82
2018-01-16T05:48:02.578Z,92.79
2018-01-16T05:50:37.522Z,92.79
2018-01-16T05:53:12.610Z,92.33
2018-01-16T05:55:47.950Z,92.12
2018-01-16T05:58:22.677Z,92.12
2018-01-16T06:00:57.217Z,91.88
2018-01-16T06:03:32.558Z,91.72
2018-01-16T06:06:07.533Z,92.22
2018-01-16T06:08:42.798Z,91.93
2018-01-16T06:11:17.890Z,91.92
2018-01-16T06:13:52.974Z,91.78
2018-01-16T06:16:27.831Z,92.31
2018-01-16T06:19:02.846Z,92.33
2018-01-16T06:21:37.964Z,92.82
2018-01-16T06:24:13.461Z,93.67
2018-01-16T06:26:48.297Z,94.31
2018-01-16T06:29:23.450Z,94.77
2018-01-16T06:31:58.521Z,95.13
2018-01-16T06:34:33.185Z,95.06
2018-01-16T06:37:08.158Z,95.25
2018-01-16T06:39:43.257Z,95.40
2018-01-16T06:42:17.762Z,95.69
2018-01-16T06:44:52.936Z,95.49
2018-01-16T06:47:28.026Z,95.26
2018-01-16T06:50:03.569Z,95.05
2018-01-16T06:52:38.783Z,95.15
2018-01-16T06:55:13.662Z,95.40
2018-01-16T06:57:48.925Z,95.47
2018-01-16T07:00:23.511Z,95.72
2018-01-16T07:02:58.707Z,96.07
2018-01-16T07:05:33.698Z,96.33
2018-01-16T07:08:08.102Z,96.53
2018-01-16T07:10:42.918Z,96.70
2018-01-16T07:13:17.983Z,96.95
2018-01-16T07:15:53.273Z,96.87
2018-01-16T07:18:28.065Z,97.19
2018-01-16T07:21:02.908Z,97.13
2018-01-16T07:23:38.099Z,96.88
2018-01-16T07:26:12.836Z,96.93
2018-01-16T07:28:48.098Z,97.05
2018-01-16T07:31:22.850Z,96.95
2018-01-16T07:33:57.717Z,96.99
2018-01-16T07:36:32.861Z,97.10
2018-01-16T07:39:08.067Z,97.07
2018-01-16T07:41:42.767Z,96.84
2018-01-16T07:44:17.733Z,96.68
2018-01-16T07:46:52.971Z,96.33
2018-01-16T07:49:27.771Z,96.10
2018-01-16T07:52:02.851Z,95.88
2018-01-16T07:54:37.837Z,95.80
2018-01-16T07:57:12.979Z,95.59
2018-01-16T07:59:48.362Z,95.56
2018-01-16T08:02:23.350Z,95.41
2018-01-16T08:04:58.407Z,95.43
2018-01-16T08:07:33.501Z,95.35
2018-01-16T08:10:08.650Z,95.13
2018-01-16T08:12:43.350Z,94.68
2018-01-16T08:15:18.221Z,94.45
2018-01-16T08:17:53.257Z,94.23
2018-01-16T08:20:30.089Z,94.10
2018-01-16T08:23:05.091Z,93.63
2018-01-16T08:25:39.879Z,93.62
2018-01-16T08:28:15.037Z,93.52
2018-01-16T08:30:50.092Z,93.67
2018-01-16T08:33:25.098Z,93.92
2018-01-16T08:35:59.707Z,93.88
2018-01-16T08:38:35.082Z,94.09
2018-01-16T08:41:09.958Z,94.33
2018-01-16T08:43:44.625Z,94.41
2018-01-16T08:46:19.820Z,94.47
2018-01-16T08:48:54.323Z,94.72
2018-01-16T08:51:29.432Z,94.92
2018-01-16T08:54:04.575Z,94.91
2018-01-16T08:56:39.326Z,95.09
2018-01-16T08:59:14.014Z,94.87
2018-01-16T09:01:48.478Z,94.53
2018-01-16T09:04:23.634Z,94.34
2018-01-16T09:06:58.838Z,94.04
2018-01-16T09:09:33.562Z,93.25
2018-01-16T09:12:08.406Z,92.13
2018-01-16T09:14:43.378Z,91.78
2018-01-16T09:17:18.296Z,91.62
2018-01-16T09:19:53.383Z,91.49
2018-01-16T09:22:28.149Z,91.98
2018-01-16T09:25:03.165Z,92.35
2018-01-16T09:27:38.182Z,92.88
2018-01-16T09:30:13.067Z,93.27
2018-01-16T09:32:48.281Z,93.83
2018-01-16T09:35:23.026Z,93.96
2018-01-16T09:37:58.026Z,94.23
2018-01-16T09:40:33.079Z,94.97
2018-01-16T09:43:08.190Z,95.67
2018-01-16T09:45:43.121Z,96.03
2018-01-16T09:48:18.037Z,96.37
2018-01-16T09:50:52.774Z,96.54
2018-01-16T09:53:27.191Z,96.61
2018-01-16T09:56:02.450Z,96.84
2018-01-16T09:58:40.111Z,97.07
2018-01-16T10:01:15.078Z,97.09
2018-01-16T10:03:50.676Z,96.96
2018-01-16T10:06:26.106Z,95.72
2018-01-16T10:09:01.086Z,95.21
2018-01-16T10:11:37.410Z,95.14
2018-01-16T10:14:11.766Z,94.79
2018-01-16T10:16:47.375Z,94.53
2018-01-16T10:19:21.787Z,94.33
2018-01-16T10:21:56.659Z,94.40
2018-01-16T10:24:31.634Z,94.01
2018-01-16T10:27:06.539Z,93.39
2018-01-16T10:29:41.459Z,93.75
2018-01-16T10:32:16.372Z,93.28
2018-01-16T10:34:51.530Z,93.16
2018-01-16T10:37:26.518Z,92.79
2018-01-16T10:40:01.343Z,92.48
2018-01-16T10:42:37.486Z,92.29
2018-01-16T10:45:12.287Z,92.71
2018-01-16T10:47:47.249Z,93.30
2018-01-16T10:50:22.216Z,93.70
2018-01-16T10:52:56.846Z,94.21
2018-01-16T10:55:31.691Z,94.91
2018-01-16T10:58:06.442Z,95.05
2018-01-16T11:00:41.547Z,95.16
2018-01-16T11:03:16.402Z,95.22
2018-01-16T11:05:51.514Z,95.39
2018-01-16T11:08:26.346Z,95.85
2018-01-16T11:11:01.352Z,96.42
2018-01-16T11:13:35.787Z,96.82
2018-01-16T11:16:10.880Z,96.95
2018-01-16T11:18:45.874Z,97.09
2018-01-16T11:21:20.918Z,97.20
2018-01-16T11:23:56.266Z,97.18
2018-01-16T11:26:31.531Z,97.35
2018-01-16T11:29:06.462Z,97.44
2018-01-16T11:31:41.510Z,96.95
2018-01-16T11:34:16.408Z,96.93
2018-01-16T11:36:51.666Z,96.78
2018-01-16T11:39:26.584Z,96.79
2018-01-16T11:42:01.470Z,96.85
2018-01-16T11:44:37.790Z,97.03
2018-01-16T11:47:12.554Z,96.82
2018-01-16T11:49:47.411Z,96.67
2018-01-16T11:52:22.433Z,96.28
2018-01-16T11:54:57.419Z,96.34
2018-01-16T11:57:32.447Z,95.87
2018-01-16T12:00:07.558Z,95.92
2018-01-16T12:02:42.631Z,95.60
2018-01-16T12:05:17.358Z,95.18
2018-01-16T12:07:52.350Z,93.99
2018-01-16T12:10:27.439Z,93.66
2018-01-16T12:13:02.483Z,93.48
2018-01-16T12:15:37.418Z,92.90
2018-01-16T12:18:12.507Z,92.71
2018-01-16T12:20:47.782Z,93.30
2018-01-16T12:23:22.869Z,93.33
2018-01-16T12:25:58.277Z,92.56
2018-01-16T12:28:33.583Z,92.55
2018-01-16T12:31:08.368Z,93.22
2018-01-16T12:33:43.797Z,93.53
2018-01-16T12:36:18.731Z,93.58
2018-01-16T12:38:53.829Z,93.57
2018-01-16T12:41:28.588Z,93.13
2018-01-16T12:44:03.235Z,93.38
2018-01-16T12:46:38.566Z,92.95
2018-01-16T12:49:13.666Z,92.19
2018-01-16T12:51:49.149Z,91.97
2018-01-16T12:54:23.931Z,91.05
2018-01-16T12:56:58.839Z,91.14
2018-01-16T12:59:33.820Z,90.80
2018-01-16T13:02:08.691Z,90.28
2018-01-16T13:04:43.611Z,89.56
2018-01-16T13:07:18.717Z,88.06
2018-01-16T13:09:53.591Z,88.55
2018-01-16T13:12:28.430Z,87.88
2018-01-16T13:15:03.394Z,88.53
2018-01-16T13:17:37.981Z,88.65
2018-01-16T13:20:13.154Z,87.75
2018-01-16T13:22:48.133Z,86.47
2018-01-16T13:25:23.579Z,86.42
2018-01-16T13:27:58.487Z,87.04
2018-01-16T13:30:33.637Z,87.15
2018-01-16T13:33:08.597Z,87.27
2018-01-16T13:35:43.667Z,86.76
2018-01-16T13:38:18.975Z,86.81
2018-01-16T13:40:54.042Z,86.83
2018-01-16T13:43:28.712Z,86.49
2018-01-16T13:46:03.688Z,86.16
2018-01-16T13:48:38.997Z,86.10
2018-01-16T13:51:13.573Z,85.73
2018-01-16T13:53:48.921Z,84.36
2018-01-16T13:56:23.790Z,83.65
2018-01-16T13:58:58.612Z,84.06
2018-01-16T14:01:33.743Z,83.70
2018-01-16T14:04:08.718Z,83.88
2018-01-16T14:06:43.945Z,83.86
2018-01-16T14:09:18.627Z,84.27
2018-01-16T14:11:53.284Z,84.69
2018-01-16T14:14:28.214Z,85.71
2018-01-16T14:17:03.048Z,86.69
2018-01-16T14:19:38.129Z,87.79
2018-01-16T14:22:12.837Z,87.53
2018-01-16T14:24:47.998Z,87.57
2018-01-16T14:27:22.886Z,87.82
2018-01-16T14:29:57.798Z,87.87
2018-01-16T14:32:32.891Z,88.16
2018-01-16T14:35:07.853Z,87.64
2018-01-16T14:37:42.855Z,87.31
2018-01-16T14:40:17.862Z,86.88
2018-01-16T14:42:52.709Z,87.15
2018-01-16T14:45:27.785Z,86.96
2018-01-16T14:48:02.862Z,86.48
2018-01-16T14:50:38.249Z,86.41
2018-01-16T14:53:13.431Z,86.30
2018-01-16T14:55:48.489Z,85.83
2018-01-16T14:58:23.900Z,86.03
2018-01-16T15:00:59.066Z,85.92
2018-01-16T15:03:34.003Z,86.06
2018-01-16T15:06:08.944Z,85.77
2018-01-16T15:08:44.155Z,85.55
2018-01-16T15:11:18.930Z,85.56
2018-01-16T15:13:54.347Z,85.39
2018-01-16T15:16:29.317Z,85.49
2018-01-16T15:19:03.970Z,85.92
2018-01-16T15:21:38.459Z,86.52
2018-01-16T15:24:13.780Z,86.87
2018-01-16T15:26:48.496Z,86.85
2018-01-16T15:29:23.198Z,87.10
2018-01-16T15:31:58.015Z,87.17
2018-01-16T15:34:32.782Z,87.55
2018-01-16T15:37:07.933Z,87.78
2018-01-16T15:39:42.795Z,87.82
2018-01-16T15:42:17.406Z,88.14
2018-01-16T15:44:52.603Z,87.97
2018-01-16T15:47:27.175Z,88.26
2018-01-16T15:50:02.054Z,88.18
2018-01-16T15:52:38.323Z,88.17
2018-01-16T15:55:13.098Z,88.58
2018-01-16T15:57:48.321Z,88.90
2018-01-16T16:00:23.130Z,89.06
2018-01-16T16:02:58.129Z,89.15
2018-01-16T16:05:32.863Z,89.16
2018-01-16T16:08:07.990Z,89.65
2018-01-16T16:10:43.043Z,89.61
2018-01-16T16:13:18.135Z,89.37
2018-01-16T16:15:53.351Z,88.98
2018-01-16T16:18:28.226Z,88.87
2018-01-16T16:21:03.144Z,88.78
2018-01-16T16:23:38.473Z,88.32
2018-01-16T16:26:13.065Z,88.17
2018-01-16T16:28:48.357Z,87.82
2018-01-16T16:31:23.174Z,87.88
2018-01-16T16:33:58.146Z,87.73
2018-01-16T16:36:33.174Z,87.76
2018-01-16T16:39:08.124Z,87.93
2018-01-16T16:41:42.551Z,87.83
2018-01-16T16:44:17.311Z,87.52
2018-01-16T16:46:52.485Z,87.45
2018-01-16T16:49:27.310Z,87.34
2018-01-16T16:52:02.315Z,87.21
2018-01-16T16:54:38.593Z,87.34
2018-01-16T16:57:13.442Z,87.17
2018-01-16T16:59:48.426Z,87.29
2018-01-16T17:02:23.369Z,87.49
2018-01-16T17:04:58.343Z,87.65
2018-01-16T17:07:33.198Z,88.03
2018-01-16T17:10:08.336Z,88.48
2018-01-16T17:12:43.598Z,89.26
2018-01-16T17:15:18.211Z,90.07
2018-01-16T17:17:54.490Z,90.76
2018-01-16T17:20:29.323Z,91.59
2018-01-16T17:23:04.436Z,92.35
2018-01-16T17:25:39.569Z,92.93
2018-01-16T17:28:15.547Z,93.09
2018-01-16T17:30:50.845Z,93.25
2018-01-16T17:33:25.860Z,93.28
2018-01-16T17:36:00.615Z,93.04
2018-01-16T17:38:35.278Z,92.75
2018-01-16T17:41:10.167Z,92.53
2018-01-16T17:43:45.664Z,92.53
2018-01-16T17:46:21.379Z,92.28
2018-01-16T17:48:55.912Z,92.01
2018-01-16T17:51:31.224Z,92.08
2018-01-16T17:54:05.778Z,91.77
2018-01-16T17:56:40.579Z,91.30
2018-01-16T17:59:15.671Z,91.28
2018-01-16T18:01:50.672Z,90.89
2018-01-16T18:04:25.600Z,90.94
2018-01-16T18:07:00.547Z,90.44
2018-01-16T18:09:35.435Z,90.19
2018-01-16T18:12:10.326Z,90.02
2018-01-16T18:14:45.390Z,89.76
2018-01-16T18:17:20.529Z,89.34
2018-01-16T18:19:55.299Z,89.16
2018-01-16T18:22:30.479Z,89.40
2018-01-16T18:25:04.736Z,88.92
2018-01-16T18:27:39.713Z,89.08
2018-01-16T18:30:14.771Z,89.17
2018-01-16T18:32:49.866Z,89.07
2018-01-16T18:35:24.508Z,89.03
2018-01-16T18:37:59.616Z,89.11
2018-01-16T18:40:34.350Z,89.00
2018-01-16T18:43:09.691Z,89.17
2018-01-16T18:45:44.734Z,89.00
2018-01-16T18:48:19.452Z,88.89
2018-01-16T18:50:54.698Z,88.90
2018-01-16T18:53:29.135Z,88.99
2018-01-16T18:56:03.609Z,89.10
2018-01-16T18:58:38.799Z,89.48
2018-01-16T19:01:13.921Z,89.88
2018-01-16T19:03:48.868Z,90.43
2018-01-16T19:06:23.935Z,90.73
2018-01-16T19:08:58.834Z,91.32
2018-01-16T19:11:33.731Z,91.91
2018-01-16T19:14:08.652Z,92.25
2018-01-16T19:16:43.639Z,92.18
2018-01-16T19:19:18.505Z,92.23
2018-01-16T19:21:53.404Z,92.32
2018-01-16T19:24:28.588Z,92.39
2018-01-16T19:27:03.603Z,92.45
2018-01-16T19:29:38.411Z,92.65
2018-01-16T19:32:13.406Z,92.59
2018-01-16T19:34:48.105Z,92.62
2018-01-16T19:37:22.707Z,92.56
2018-01-16T19:39:57.880Z,92.54
2018-01-16T19:42:32.899Z,92.47
2018-01-16T19:45:07.700Z,92.58
2018-01-16T19:47:42.997Z,92.42
2018-01-16T19:50:17.778Z,92.33
2018-01-16T19:52:53.009Z,92.23
2018-01-16T19:55:27.842Z,92.46
2018-01-16T19:58:03.085Z,92.22
2018-01-16T20:00:39.082Z,92.18
2018-01-16T20:03:14.619Z,91.95
2018-01-16T20:05:49.106Z,91.67
2018-01-16T20:08:24.052Z,91.83
2018-01-16T20:11:00.683Z,91.94
2018-01-16T20:13:35.554Z,91.87
2018-01-16T20:16:10.713Z,91.90
2018-01-16T20:18:46.037Z,92.08
2018-01-16T20:21:20.690Z,91.98
2018-01-16T20:23:55.877Z,92.00
2018-01-16T20:26:30.758Z,91.99
2018-01-16T20:29:05.851Z,91.89
2018-01-16T20:31:41.093Z,92.10
2018-01-16T20:34:15.947Z,92.17
2018-01-16T20:36:51.009Z,92.12
2018-01-16T20:39:26.016Z,92.32
2018-01-16T20:42:01.294Z,92.47
2018-01-16T20:44:36.778Z,92.48
2018-01-16T20:47:11.472Z,92.44
2018-01-16T20:49:46.181Z,92.55
2018-01-16T20:52:21.228Z,92.61
2018-01-16T20:54:56.163Z,92.63
2018-01-16T20:57:31.158Z,92.57
2018-01-16T21:00:06.195Z,92.35
2018-01-16T21:02:41.155Z,92.30
2018-01-16T21:05:16.267Z,92.24
2018-01-16T21:07:51.427Z,92.26
2018-01-16T21:10:26.738Z,92.14
2018-01-16T21:13:01.858Z,92.03
2018-01-16T21:15:36.543Z,91.70
2018-01-16T21:18:11.337Z,91.53
2018-01-16T21:20:46.647Z,91.38
2018-01-16T21:23:21.215Z,91.43
2018-01-16T21:25:56.200Z,91.21
2018-01-16T21:28:31.177Z,91.31
2018-01-16T21:31:05.946Z,91.03
2018-01-16T21:33:41.018Z,91.13
2018-01-16T21:36:15.940Z,91.27
2018-01-16T21:38:50.702Z,91.30
2018-01-16T21:41:25.459Z,91.47
2018-01-16T21:44:00.682Z,91.43
2018-01-16T21:46:35.582Z,91.55
2018-01-16T21:49:11.410Z,91.69
2018-01-16T21:51:46.498Z,91.92
2018-01-16T21:54:21.934Z,91.98
2018-01-16T21:56:56.617Z,91.88
2018-01-16T21:59:31.741Z,91.95
2018-01-16T22:02:07.032Z,92.02
2018-01-16T22:04:41.970Z,91.86
2018-01-16T22:07:17.086Z,91.86
2018-01-16T22:09:52.488Z,92.02
2018-01-16T22:12:27.859Z,92.28
2018-01-16T22:15:02.419Z,92.37
2018-01-16T22:17:37.549Z,92.64
2018-01-16T22:20:12.406Z,92.63
2018-01-16T22:22:47.998Z,92.61
2018-01-16T22:25:23.123Z,92.41
2018-01-16T22:27:57.919Z,92.50
2018-01-16T22:30:33.095Z,92.40
2018-01-16T22:33:08.083Z,92.42
2018-01-16T22:35:43.383Z,92.34
2018-01-16T22:38:18.134Z,92.20
2018-01-16T22:40:53.198Z,92.29
2018-01-16T22:43:28.071Z,92.06
2018-01-16T22:46:03.134Z,91.83
2018-01-16T22:48:39.059Z,91.87
2018-01-16T22:51:13.629Z,91.84
2018-01-16T22:53:49.354Z,91.76
2018-01-16T22:56:23.701Z,91.94
2018-01-16T22:58:58.522Z,92.04
2018-01-16T23:01:34.110Z,92.17
2018-01-16T23:04:09.187Z,92.23
2018-01-16T23:06:43.671Z,92.42
2018-01-16T23:09:19.171Z,92.31
2018-01-16T23:11:53.716Z,92.26
2018-01-16T23:14:29.270Z,92.22
2018-01-16T23:17:04.258Z,92.23
2018-01-16T23:19:39.667Z,92.19
2018-01-16T23:22:14.301Z,92.24
2018-01-16T23:24:49.215Z,92.10
2018-01-16T23:27:24.271Z,91.93
2018-01-16T23:29:59.311Z,91.67
2018-01-16T23:32:34.355Z,91.65
2018-01-16T23:35:09.474Z,91.53
2018-01-16T23:37:44.511Z,91.48
2018-01-16T23:40:19.347Z,91.55
2018-01-16T23:42:54.307Z,91.32
2018-01-16T23:45:29.299Z,91.34
2018-01-16T23:48:04.278Z,91.18
2018-01-16T23:50:39.648Z,91.01
2018-01-16T23:53:15.211Z,90.84
2018-01-16T23:55:50.409Z,90.91
2018-01-16T23:58:25.258Z,91.01
